Pride — ZDFD7 — position and weather

sailwx.info

Track history (hours):
 
Tides and Currents Weather Stations Pressure Air Temp Water Temp Dewpoint Dewpoint Depression Visibility Wind Speed Wind Dir Waves Ship Positions

Pride

Last reported at 2016-Feb-11 20:33 UTC. Time now 2016-Feb-13 17:20 UTC.
Position N 50°31' W 003°27'.

Length 88 m; draft 5.1 m.

Type: Cargo ship. MMSI: 236166000.

Date/timePositionNaut miles runAvg speedWind from/ knotsBaromVisibWave heightAir tempDewpointWater temp
2016-Feb-11 20:33N 50°31' W 003°27'5 5.0
2016-Feb-11 19:33N 50°31' W 003°19'5 4.8
2016-Feb-11 18:33N 50°30' W 003°12'168 8.8
2016-Feb-10 23:31N 50°56' E 001°10'1010.1
2016-Feb-10 22:33N 51°02' E 001°22'1313.3
2016-Feb-10 21:34N 51°10' E 001°39'1313.0
2016-Feb-10 20:33N 51°21' E 001°50'1111.3
2016-Feb-10 19:33N 51°31' E 002°00'86 8.5
2016-Feb-10 09:29N 52°37' E 003°29'9 8.9
2016-Feb-10 08:26N 52°44' E 003°39'7 8.0
2016-Feb-10 07:30N 52°50' E 003°46'7 7.2
2016-Feb-10 06:33N 52°55' E 003°54'35 6.6
2016-Feb-10 01:20N 53°21' E 004°31'7 8.6
2016-Feb-10 00:32N 53°28' E 004°36'17 8.6
2016-Feb-09 22:33N 53°34' E 005°02'8 8.4
2016-Feb-09 21:33N 53°37' E 005°15'8 7.7
2016-Feb-09 20:33N 53°40' E 005°28'7 7.5
2016-Feb-09 19:33N 53°42' E 005°40'7 7.2
2016-Feb-09 18:33N 53°45' E 005°51'8 7.7
2016-Feb-09 17:33N 53°47' E 006°04'9 9.0
2016-Feb-09 16:33N 53°50' E 006°18'1010.0
2016-Feb-09 15:33N 53°52' E 006°34'1010.0
2016-Feb-09 14:33N 53°55' E 006°51'9 9.4
2016-Feb-09 13:33N 53°57' E 007°07'9 8.7
2016-Feb-09 12:33N 53°59' E 007°21'8 7.8
2016-Feb-09 11:33N 54°01' E 007°34'7 7.0
2016-Feb-09 10:33N 54°02' E 007°46'6 6.1
2016-Feb-09 09:33N 54°01' E 007°56'6 5.5
2016-Feb-09 08:32N 54°01' E 008°06'6 5.2
2016-Feb-09 07:26N 54°01' E 008°15'6 7.3
2016-Feb-09 06:33N 53°59' E 008°26'1110.5
2016-Feb-09 05:33N 53°54' E 008°42'1110.9
2016-Feb-09 04:33N 53°51' E 008°59'2 1.6
2016-Feb-09 03:25N 53°52' E 009°02'0 0.1
2016-Feb-09 02:31N 53°52' E 009°02'0 0.0
2016-Feb-09 01:28N 53°52' E 009°02'0 0.0
2016-Feb-09 00:31N 53°52' E 009°02'0 0.0
2016-Feb-08 23:33N 53°52' E 009°02'0 0.0
2016-Feb-08 22:30N 53°52' E 009°02'0 0.0
2016-Feb-08 21:31N 53°52' E 009°02'4 3.9
2016-Feb-08 20:33N 53°53' E 009°08'1 0.5
2016-Feb-08 19:32N 53°54' E 009°09'35 6.5
2016-Feb-08 14:05N 54°21' E 009°47'4 7.6
2016-Feb-08 13:33N 54°21' E 009°53'8 7.5
2016-Feb-08 12:33N 54°22' E 010°06'2 1.5
2016-Feb-08 11:33N 54°22' E 010°09'7 6.5
2016-Feb-08 10:33N 54°27' E 010°15'10 0.4
2016-Feb-07 10:32N 54°33' E 010°28'9 9.3
2016-Feb-07 09:34N 54°35' E 010°43'9 8.7
2016-Feb-07 08:33N 54°36' E 010°58'9 9.2
2016-Feb-07 07:34N 54°35' E 011°14'1010.2
2016-Feb-07 06:34N 54°31' E 011°30'1010.3
2016-Feb-07 05:33N 54°27' E 011°46'10 9.9
2016-Feb-07 04:32N 54°27' E 012°03'9 9.0
2016-Feb-07 03:33N 54°33' E 012°13'10 9.4
2016-Feb-07 02:31N 54°41' E 012°24'1110.2
2016-Feb-07 01:28N 54°46' E 012°40'4310.0
2016-Feb-06 21:09N 54°43' E 013°54'35 9.6
2016-Feb-06 17:29N 54°43' E 014°55'  
2016-Feb-02 11:33N 54°40' E 012°43'1111.0
2016-Feb-02 10:33N 54°35' E 012°26'1110.9
2016-Feb-02 09:33N 54°27' E 012°13'1110.8
2016-Feb-02 08:33N 54°24' E 011°55'1111.4
2016-Feb-02 07:33N 54°27' E 011°36'1312.6
2016-Feb-02 06:33N 54°32' E 011°17'1212.1
2016-Feb-02 05:33N 54°34' E 010°56'1111.4
2016-Feb-02 04:33N 54°33' E 010°37'1311.0
2016-Feb-02 03:24N 54°28' E 010°17'8 9.1
2016-Feb-02 02:33N 54°22' E 010°09'2 2.4
2016-Feb-02 01:33N 54°22' E 010°04'8 8.2
2016-Feb-02 00:33N 54°22' E 009°50'7 6.9
2016-Feb-01 23:33N 54°18' E 009°41'  
Track history (hours):
 
Tides and Currents Weather Stations Pressure Air Temp Water Temp Dewpoint Dewpoint Depression Visibility Wind Speed Wind Dir Waves Ship Positions

Pride

Last reported at 2016-Feb-11 20:33 UTC. Time now 2016-Feb-13 17:20 UTC.
Position N 50°31' W 003°27'.

Length 88 m; draft 5.1 m.

Type: Cargo ship. MMSI: 236166000.

Date/timePositionNaut miles runAvg speedWind from/ knotsBaromVisibWave heightAir tempDewpointWater temp
2016-Feb-11 20:33N 50°31' W 003°27'5 5.0
2016-Feb-11 19:33N 50°31' W 003°19'5 4.8
2016-Feb-11 18:33N 50°30' W 003°12'168 8.8
2016-Feb-10 23:31N 50°56' E 001°10'1010.1
2016-Feb-10 22:33N 51°02' E 001°22'1313.3
2016-Feb-10 21:34N 51°10' E 001°39'1313.0
2016-Feb-10 20:33N 51°21' E 001°50'1111.3
2016-Feb-10 19:33N 51°31' E 002°00'86 8.5
2016-Feb-10 09:29N 52°37' E 003°29'9 8.9
2016-Feb-10 08:26N 52°44' E 003°39'7 8.0
2016-Feb-10 07:30N 52°50' E 003°46'7 7.2
2016-Feb-10 06:33N 52°55' E 003°54'35 6.6
2016-Feb-10 01:20N 53°21' E 004°31'7 8.6
2016-Feb-10 00:32N 53°28' E 004°36'17 8.6
2016-Feb-09 22:33N 53°34' E 005°02'8 8.4
2016-Feb-09 21:33N 53°37' E 005°15'8 7.7
2016-Feb-09 20:33N 53°40' E 005°28'7 7.5
2016-Feb-09 19:33N 53°42' E 005°40'7 7.2
2016-Feb-09 18:33N 53°45' E 005°51'8 7.7
2016-Feb-09 17:33N 53°47' E 006°04'9 9.0
2016-Feb-09 16:33N 53°50' E 006°18'1010.0
2016-Feb-09 15:33N 53°52' E 006°34'1010.0
2016-Feb-09 14:33N 53°55' E 006°51'9 9.4
2016-Feb-09 13:33N 53°57' E 007°07'9 8.7
2016-Feb-09 12:33N 53°59' E 007°21'8 7.8
2016-Feb-09 11:33N 54°01' E 007°34'7 7.0
2016-Feb-09 10:33N 54°02' E 007°46'6 6.1
2016-Feb-09 09:33N 54°01' E 007°56'6 5.5
2016-Feb-09 08:32N 54°01' E 008°06'6 5.2
2016-Feb-09 07:26N 54°01' E 008°15'6 7.3
2016-Feb-09 06:33N 53°59' E 008°26'1110.5
2016-Feb-09 05:33N 53°54' E 008°42'1110.9
2016-Feb-09 04:33N 53°51' E 008°59'2 1.6
2016-Feb-09 03:25N 53°52' E 009°02'0 0.1
2016-Feb-09 02:31N 53°52' E 009°02'0 0.0
2016-Feb-09 01:28N 53°52' E 009°02'0 0.0
2016-Feb-09 00:31N 53°52' E 009°02'0 0.0
2016-Feb-08 23:33N 53°52' E 009°02'0 0.0
2016-Feb-08 22:30N 53°52' E 009°02'0 0.0
2016-Feb-08 21:31N 53°52' E 009°02'4 3.9
2016-Feb-08 20:33N 53°53' E 009°08'1 0.5
2016-Feb-08 19:32N 53°54' E 009°09'35 6.5
2016-Feb-08 14:05N 54°21' E 009°47'4 7.6
2016-Feb-08 13:33N 54°21' E 009°53'8 7.5
2016-Feb-08 12:33N 54°22' E 010°06'2 1.5
2016-Feb-08 11:33N 54°22' E 010°09'7 6.5
2016-Feb-08 10:33N 54°27' E 010°15'10 0.4
2016-Feb-07 10:32N 54°33' E 010°28'9 9.3
2016-Feb-07 09:34N 54°35' E 010°43'9 8.7
2016-Feb-07 08:33N 54°36' E 010°58'9 9.2
2016-Feb-07 07:34N 54°35' E 011°14'1010.2
2016-Feb-07 06:34N 54°31' E 011°30'1010.3
2016-Feb-07 05:33N 54°27' E 011°46'10 9.9
2016-Feb-07 04:32N 54°27' E 012°03'9 9.0
2016-Feb-07 03:33N 54°33' E 012°13'10 9.4
2016-Feb-07 02:31N 54°41' E 012°24'1110.2
2016-Feb-07 01:28N 54°46' E 012°40'4310.0
2016-Feb-06 21:09N 54°43' E 013°54'35 9.6
2016-Feb-06 17:29N 54°43' E 014°55'  
2016-Feb-02 11:33N 54°40' E 012°43'1111.0
2016-Feb-02 10:33N 54°35' E 012°26'1110.9
2016-Feb-02 09:33N 54°27' E 012°13'1110.8
2016-Feb-02 08:33N 54°24' E 011°55'1111.4
2016-Feb-02 07:33N 54°27' E 011°36'1312.6
2016-Feb-02 06:33N 54°32' E 011°17'1212.1
2016-Feb-02 05:33N 54°34' E 010°56'1111.4
2016-Feb-02 04:33N 54°33' E 010°37'1311.0
2016-Feb-02 03:24N 54°28' E 010°17'8 9.1
2016-Feb-02 02:33N 54°22' E 010°09'2 2.4
2016-Feb-02 01:33N 54°22' E 010°04'8 8.2
2016-Feb-02 00:33N 54°22' E 009°50'7 6.9
2016-Feb-01 23:33N 54°18' E 009°41'  

Dump ship's entire track history